SFR278 FAOR-FALE
Flight info
| Callsign | SFR278 |
|---|---|
| Flight time | 0h 50m |
| Altitude | 35000 |
| Route | APDAK1D APDAK UQ48 APMAT APMAT1A |
| Aircraft | B738/M-SDE2E3FGHIRWXY/LB1 |
Departure
| Time | 2026-05-07 20:22 |
|---|---|
| Airport | O.R. Tambo International Airport (FAOR) |
Arrival
| Time | 2026-05-07 21:12 |
|---|---|
| Airport | King Shaka International Airport (FALE) |
| Time | Latitude | Longitude | Altitude | Speed | Heading |
|---|---|---|---|---|---|
| 2026-05-07 19:57 | -26.13480 | 28.23280 | 5583 ft | 0 kts | 277° |
| 2026-05-07 20:12 | -26.13480 | 28.23282 | 5583 ft | 0 kts | 277° |
| 2026-05-07 20:12 | -26.13482 | 28.23297 | 5582 ft | 2 kts | 277° |
| 2026-05-07 20:12 | -26.13484 | 28.23313 | 5582 ft | 2 kts | 277° |
| 2026-05-07 20:12 | -26.13486 | 28.23330 | 5581 ft | 2 kts | 277° |
| 2026-05-07 20:13 | -26.13490 | 28.23346 | 5581 ft | 2 kts | 306° |
| 2026-05-07 20:13 | -26.13501 | 28.23358 | 5581 ft | 2 kts | 328° |
| 2026-05-07 20:13 | -26.13515 | 28.23364 | 5581 ft | 2 kts | 352° |
| 2026-05-07 20:13 | -26.13524 | 28.23364 | 5581 ft | 1 kts | 6° |
| 2026-05-07 20:14 | -26.13530 | 28.23363 | 5581 ft | 0 kts | 7° |
| 2026-05-07 20:16 | -26.13524 | 28.23364 | 5581 ft | 3 kts | 7° |
| 2026-05-07 20:17 | -26.13484 | 28.23370 | 5581 ft | 7 kts | 7° |
| 2026-05-07 20:17 | -26.13415 | 28.23378 | 5580 ft | 12 kts | 6° |
| 2026-05-07 20:17 | -26.13322 | 28.23391 | 5579 ft | 13 kts | 7° |
| 2026-05-07 20:17 | -26.13227 | 28.23403 | 5575 ft | 15 kts | 6° |
| 2026-05-07 20:18 | -26.13132 | 28.23417 | 5566 ft | 11 kts | 19° |
| 2026-05-07 20:18 | -26.13111 | 28.23473 | 5561 ft | 9 kts | 98° |
| 2026-05-07 20:18 | -26.13122 | 28.23578 | 5549 ft | 17 kts | 96° |
| 2026-05-07 20:18 | -26.13122 | 28.23680 | 5543 ft | 12 kts | 62° |
| 2026-05-07 20:19 | -26.13043 | 28.23727 | 5539 ft | 13 kts | 18° |
| 2026-05-07 20:19 | -26.12944 | 28.23757 | 5536 ft | 15 kts | 15° |
| 2026-05-07 20:19 | -26.12832 | 28.23792 | 5535 ft | 18 kts | 15° |
| 2026-05-07 20:19 | -26.12688 | 28.23835 | 5534 ft | 23 kts | 15° |
| 2026-05-07 20:20 | -26.12520 | 28.23889 | 5533 ft | 26 kts | 17° |
| 2026-05-07 20:20 | -26.12331 | 28.23947 | 5527 ft | 28 kts | 15° |
| 2026-05-07 20:20 | -26.12144 | 28.24006 | 5524 ft | 27 kts | 15° |
| 2026-05-07 20:20 | -26.11965 | 28.24059 | 5524 ft | 24 kts | 15° |
| 2026-05-07 20:21 | -26.11849 | 28.24111 | 5524 ft | 12 kts | 59° |
| 2026-05-07 20:21 | -26.11848 | 28.24200 | 5523 ft | 11 kts | 102° |
| 2026-05-07 20:21 | -26.11875 | 28.24279 | 5522 ft | 9 kts | 140° |
| 2026-05-07 20:21 | -26.11951 | 28.24269 | 5522 ft | 17 kts | 196° |
| 2026-05-07 20:22 | -26.12297 | 28.24161 | 5523 ft | 83 kts | 195° |
| 2026-05-07 20:22 | -26.13046 | 28.23927 | 5534 ft | 139 kts | 196° |
| 2026-05-07 20:22 | -26.14133 | 28.23594 | 5587 ft | 179 kts | 196° |
| 2026-05-07 20:22 | -26.15211 | 28.23237 | 6599 ft | 150 kts | 198° |
| 2026-05-07 20:23 | -26.16165 | 28.22909 | 7180 ft | 149 kts | 199° |
| 2026-05-07 20:23 | -26.17226 | 28.22522 | 7417 ft | 167 kts | 199° |
| 2026-05-07 20:23 | -26.18384 | 28.22195 | 7781 ft | 179 kts | 195° |
| 2026-05-07 20:23 | -26.19654 | 28.21870 | 8019 ft | 198 kts | 197° |
| 2026-05-07 20:24 | -26.21078 | 28.21447 | 8145 ft | 224 kts | 198° |
| 2026-05-07 20:24 | -26.22682 | 28.20943 | 8215 ft | 250 kts | 198° |
| 2026-05-07 20:24 | -26.24419 | 28.20476 | 8635 ft | 268 kts | 191° |
| 2026-05-07 20:24 | -26.26337 | 28.20534 | 9263 ft | 282 kts | 170° |
| 2026-05-07 20:25 | -26.28130 | 28.21415 | 10018 ft | 291 kts | 151° |
| 2026-05-07 20:25 | -26.29714 | 28.22891 | 10566 ft | 308 kts | 136° |
| 2026-05-07 20:25 | -26.30897 | 28.25003 | 10928 ft | 332 kts | 115° |
| 2026-05-07 20:25 | -26.31621 | 28.27505 | 11284 ft | 351 kts | 107° |
| 2026-05-07 20:26 | -26.32242 | 28.30224 | 11647 ft | 369 kts | 105° |
| 2026-05-07 20:26 | -26.32869 | 28.33054 | 12002 ft | 385 kts | 106° |
| 2026-05-07 20:26 | -26.33543 | 28.35978 | 12377 ft | 400 kts | 106° |
| 2026-05-07 20:26 | -26.34275 | 28.39025 | 12964 ft | 408 kts | 107° |
| 2026-05-07 20:27 | -26.35025 | 28.42070 | 13565 ft | 414 kts | 107° |
| 2026-05-07 20:27 | -26.35797 | 28.45163 | 14205 ft | 419 kts | 107° |
| 2026-05-07 20:27 | -26.36585 | 28.48307 | 14858 ft | 425 kts | 107° |
| 2026-05-07 20:27 | -26.37387 | 28.51505 | 15569 ft | 429 kts | 107° |
| 2026-05-07 20:28 | -26.38189 | 28.54708 | 16230 ft | 434 kts | 107° |
| 2026-05-07 20:28 | -26.39009 | 28.57991 | 16889 ft | 440 kts | 106° |
| 2026-05-07 20:28 | -26.39829 | 28.61278 | 17527 ft | 445 kts | 106° |
| 2026-05-07 20:28 | -26.40648 | 28.64570 | 18156 ft | 450 kts | 106° |
| 2026-05-07 20:29 | -26.41502 | 28.68005 | 18724 ft | 456 kts | 106° |
| 2026-05-07 20:29 | -26.42347 | 28.71409 | 19357 ft | 460 kts | 106° |
| 2026-05-07 20:29 | -26.43210 | 28.74888 | 19934 ft | 465 kts | 106° |
| 2026-05-07 20:29 | -26.44075 | 28.78378 | 20473 ft | 471 kts | 106° |
| 2026-05-07 20:30 | -26.44963 | 28.81866 | 21038 ft | 475 kts | 107° |
| 2026-05-07 20:30 | -26.46007 | 28.85405 | 21556 ft | 480 kts | 111° |
| 2026-05-07 20:30 | -26.47300 | 28.88814 | 22067 ft | 484 kts | 116° |
| 2026-05-07 20:30 | -26.48800 | 28.92182 | 22691 ft | 485 kts | 119° |
| 2026-05-07 20:31 | -26.50402 | 28.95518 | 23105 ft | 492 kts | 120° |
| 2026-05-07 20:31 | -26.52071 | 28.98890 | 23599 ft | 497 kts | 121° |
| 2026-05-07 20:31 | -26.53854 | 29.02208 | 24100 ft | 499 kts | 126° |
| 2026-05-07 20:31 | -26.55946 | 29.05318 | 24597 ft | 501 kts | 132° |
| 2026-05-07 20:32 | -26.58238 | 29.08245 | 25078 ft | 504 kts | 136° |
| 2026-05-07 20:32 | -26.60665 | 29.11098 | 25522 ft | 508 kts | 138° |
| 2026-05-07 20:32 | -26.63133 | 29.13870 | 26033 ft | 511 kts | 139° |
| 2026-05-07 20:32 | -26.65697 | 29.16688 | 26471 ft | 516 kts | 140° |
| 2026-05-07 20:33 | -26.68267 | 29.19486 | 26933 ft | 520 kts | 140° |
| 2026-05-07 20:33 | -26.70874 | 29.22325 | 27432 ft | 523 kts | 140° |
| 2026-05-07 20:33 | -26.73467 | 29.25157 | 27826 ft | 528 kts | 140° |
| 2026-05-07 20:33 | -26.76112 | 29.28058 | 28367 ft | 529 kts | 140° |
| 2026-05-07 20:34 | -26.78734 | 29.30952 | 29067 ft | 527 kts | 140° |
| 2026-05-07 20:34 | -26.81324 | 29.33819 | 29631 ft | 527 kts | 140° |
| 2026-05-07 20:34 | -26.83908 | 29.36689 | 30094 ft | 528 kts | 140° |
| 2026-05-07 20:34 | -26.86550 | 29.39629 | 30580 ft | 529 kts | 140° |
| 2026-05-07 20:35 | -26.89198 | 29.42536 | 31073 ft | 528 kts | 142° |
| 2026-05-07 20:35 | -26.91894 | 29.45259 | 31504 ft | 525 kts | 146° |
| 2026-05-07 20:35 | -26.94766 | 29.47842 | 31979 ft | 522 kts | 149° |
| 2026-05-07 20:35 | -26.97680 | 29.50257 | 32361 ft | 522 kts | 152° |
| 2026-05-07 20:36 | -27.00621 | 29.52575 | 32787 ft | 521 kts | 152° |
| 2026-05-07 20:36 | -27.03618 | 29.54884 | 33183 ft | 521 kts | 153° |
| 2026-05-07 20:36 | -27.06622 | 29.57180 | 33687 ft | 520 kts | 153° |
| 2026-05-07 20:36 | -27.09566 | 29.59432 | 34169 ft | 519 kts | 153° |
| 2026-05-07 20:37 | -27.12603 | 29.61767 | 34627 ft | 519 kts | 153° |
| 2026-05-07 20:37 | -27.15602 | 29.64084 | 34990 ft | 520 kts | 153° |
| 2026-05-07 20:37 | -27.18629 | 29.66431 | 35124 ft | 524 kts | 152° |
| 2026-05-07 20:38 | -27.24555 | 29.71060 | 35135 ft | 520 kts | 152° |
| 2026-05-07 20:38 | -27.30514 | 29.75744 | 35128 ft | 521 kts | 152° |
| 2026-05-07 20:39 | -27.36461 | 29.80426 | 35125 ft | 521 kts | 152° |
| 2026-05-07 20:39 | -27.42409 | 29.85111 | 35129 ft | 523 kts | 152° |
| 2026-05-07 20:40 | -27.48341 | 29.89792 | 35113 ft | 522 kts | 151° |
| 2026-05-07 20:40 | -27.54274 | 29.94483 | 35119 ft | 522 kts | 152° |
| 2026-05-07 20:41 | -27.60204 | 29.99177 | 35103 ft | 522 kts | 151° |
| 2026-05-07 20:41 | -27.66148 | 30.03891 | 35088 ft | 522 kts | 152° |
| 2026-05-07 20:42 | -27.72072 | 30.08596 | 35093 ft | 523 kts | 151° |
| 2026-05-07 20:42 | -27.78010 | 30.13331 | 35076 ft | 522 kts | 151° |
| 2026-05-07 20:43 | -27.83965 | 30.18090 | 35069 ft | 523 kts | 151° |
| 2026-05-07 20:43 | -27.89909 | 30.22848 | 35068 ft | 523 kts | 151° |
| 2026-05-07 20:44 | -27.95856 | 30.27613 | 35067 ft | 524 kts | 151° |
| 2026-05-07 20:44 | -28.01809 | 30.32387 | 35063 ft | 523 kts | 151° |
| 2026-05-07 20:45 | -28.07726 | 30.37138 | 35059 ft | 523 kts | 151° |
| 2026-05-07 20:45 | -28.13684 | 30.41929 | 35056 ft | 523 kts | 150° |
| 2026-05-07 20:46 | -28.19479 | 30.46598 | 35021 ft | 521 kts | 150° |
| 2026-05-07 20:46 | -28.22397 | 30.48956 | 34702 ft | 515 kts | 151° |
| 2026-05-07 20:46 | -28.25323 | 30.51322 | 34146 ft | 514 kts | 150° |
| 2026-05-07 20:46 | -28.28230 | 30.53669 | 33450 ft | 516 kts | 151° |
| 2026-05-07 20:47 | -28.31150 | 30.56024 | 32748 ft | 519 kts | 150° |
| 2026-05-07 20:47 | -28.34123 | 30.58422 | 31980 ft | 523 kts | 150° |
| 2026-05-07 20:47 | -28.37065 | 30.60799 | 31356 ft | 524 kts | 150° |
| 2026-05-07 20:47 | -28.40047 | 30.63216 | 30714 ft | 523 kts | 149° |
| 2026-05-07 20:48 | -28.43008 | 30.65618 | 30062 ft | 523 kts | 149° |
| 2026-05-07 20:48 | -28.45966 | 30.68020 | 29360 ft | 521 kts | 149° |
| 2026-05-07 20:48 | -28.48885 | 30.70394 | 28645 ft | 519 kts | 148° |
| 2026-05-07 20:48 | -28.51803 | 30.72769 | 27977 ft | 515 kts | 148° |
| 2026-05-07 20:49 | -28.54711 | 30.75137 | 27312 ft | 511 kts | 148° |
| 2026-05-07 20:49 | -28.57567 | 30.77465 | 26657 ft | 507 kts | 148° |
| 2026-05-07 20:49 | -28.58526 | 30.78247 | 26429 ft | 506 kts | 148° |
| 2026-05-07 20:50 | -28.65961 | 30.84312 | 24703 ft | 495 kts | 148° |
| 2026-05-07 20:50 | -28.68725 | 30.86569 | 24054 ft | 491 kts | 148° |
| 2026-05-07 20:50 | -28.71497 | 30.88833 | 23393 ft | 487 kts | 148° |
| 2026-05-07 20:50 | -28.74224 | 30.91056 | 22754 ft | 482 kts | 148° |
| 2026-05-07 20:51 | -28.76982 | 30.93152 | 22323 ft | 469 kts | 152° |
| 2026-05-07 20:51 | -28.79779 | 30.94872 | 22163 ft | 447 kts | 161° |
| 2026-05-07 20:51 | -28.82664 | 30.96088 | 21781 ft | 432 kts | 168° |
| 2026-05-07 20:51 | -28.85529 | 30.96987 | 21145 ft | 427 kts | 172° |
| 2026-05-07 20:52 | -28.88407 | 30.97740 | 20579 ft | 421 kts | 173° |
| 2026-05-07 20:52 | -28.91260 | 30.98433 | 20050 ft | 415 kts | 174° |
| 2026-05-07 20:52 | -28.94060 | 30.99104 | 19539 ft | 409 kts | 174° |
| 2026-05-07 20:52 | -28.96822 | 30.99775 | 19040 ft | 403 kts | 173° |
| 2026-05-07 20:53 | -28.99555 | 31.00449 | 18547 ft | 397 kts | 173° |
| 2026-05-07 20:53 | -29.02209 | 31.01112 | 18070 ft | 391 kts | 173° |
| 2026-05-07 20:53 | -29.04862 | 31.01780 | 17747 ft | 380 kts | 174° |
| 2026-05-07 20:53 | -29.07382 | 31.01934 | 17499 ft | 354 kts | 195° |
| 2026-05-07 20:54 | -29.09593 | 31.00996 | 17252 ft | 328 kts | 218° |
| 2026-05-07 20:54 | -29.11258 | 30.99354 | 16981 ft | 311 kts | 233° |
| 2026-05-07 20:54 | -29.12542 | 30.97378 | 16458 ft | 307 kts | 243° |
| 2026-05-07 20:54 | -29.13587 | 30.95264 | 15905 ft | 307 kts | 245° |
| 2026-05-07 20:55 | -29.14614 | 30.93100 | 15349 ft | 308 kts | 245° |
| 2026-05-07 20:55 | -29.15633 | 30.90956 | 14796 ft | 310 kts | 245° |
| 2026-05-07 20:55 | -29.16660 | 30.88803 | 14241 ft | 311 kts | 245° |
| 2026-05-07 20:55 | -29.17690 | 30.86647 | 13688 ft | 312 kts | 244° |
| 2026-05-07 20:56 | -29.18732 | 30.84463 | 13132 ft | 313 kts | 244° |
| 2026-05-07 20:56 | -29.19773 | 30.82279 | 12579 ft | 314 kts | 244° |
| 2026-05-07 20:56 | -29.20818 | 30.80084 | 12024 ft | 315 kts | 243° |
| 2026-05-07 20:56 | -29.21872 | 30.77867 | 11462 ft | 316 kts | 243° |
| 2026-05-07 20:57 | -29.22917 | 30.75659 | 10900 ft | 317 kts | 244° |
| 2026-05-07 20:57 | -29.23948 | 30.73454 | 10340 ft | 318 kts | 244° |
| 2026-05-07 20:57 | -29.24989 | 30.71226 | 9831 ft | 316 kts | 243° |
| 2026-05-07 20:57 | -29.26033 | 30.69054 | 9507 ft | 310 kts | 239° |
| 2026-05-07 20:58 | -29.27498 | 30.67269 | 9175 ft | 304 kts | 213° |
| 2026-05-07 20:58 | -29.29450 | 30.66396 | 8908 ft | 297 kts | 191° |
| 2026-05-07 20:58 | -29.31477 | 30.65974 | 8659 ft | 295 kts | 188° |
| 2026-05-07 20:58 | -29.33469 | 30.65572 | 8544 ft | 291 kts | 189° |
| 2026-05-07 20:59 | -29.35490 | 30.65135 | 8528 ft | 294 kts | 190° |
| 2026-05-07 20:59 | -29.37497 | 30.64681 | 8517 ft | 295 kts | 190° |
| 2026-05-07 20:59 | -29.39509 | 30.64213 | 8514 ft | 295 kts | 191° |
| 2026-05-07 20:59 | -29.41522 | 30.63743 | 8360 ft | 289 kts | 190° |
| 2026-05-07 21:00 | -29.43482 | 30.63287 | 8044 ft | 287 kts | 190° |
| 2026-05-07 21:00 | -29.45450 | 30.62831 | 8016 ft | 291 kts | 190° |
| 2026-05-07 21:00 | -29.47466 | 30.62364 | 8007 ft | 295 kts | 190° |
| 2026-05-07 21:00 | -29.49476 | 30.61897 | 7999 ft | 297 kts | 191° |
| 2026-05-07 21:01 | -29.51495 | 30.61427 | 8001 ft | 296 kts | 191° |
| 2026-05-07 21:01 | -29.53552 | 30.60950 | 8010 ft | 299 kts | 193° |
| 2026-05-07 21:01 | -29.55574 | 30.60486 | 8013 ft | 295 kts | 194° |
| 2026-05-07 21:01 | -29.57565 | 30.60030 | 8009 ft | 285 kts | 194° |
| 2026-05-07 21:02 | -29.59514 | 30.59573 | 8013 ft | 287 kts | 194° |
| 2026-05-07 21:02 | -29.61475 | 30.59111 | 8012 ft | 284 kts | 194° |
| 2026-05-07 21:02 | -29.63397 | 30.58714 | 8011 ft | 281 kts | 187° |
| 2026-05-07 21:02 | -29.65298 | 30.59037 | 8007 ft | 274 kts | 159° |
| 2026-05-07 21:03 | -29.66845 | 30.60306 | 7819 ft | 273 kts | 137° |
| 2026-05-07 21:03 | -29.68125 | 30.61919 | 7504 ft | 272 kts | 134° |
| 2026-05-07 21:03 | -29.69394 | 30.63536 | 7205 ft | 270 kts | 135° |
| 2026-05-07 21:03 | -29.70664 | 30.65110 | 6856 ft | 271 kts | 137° |
| 2026-05-07 21:04 | -29.71963 | 30.66695 | 6560 ft | 268 kts | 137° |
| 2026-05-07 21:04 | -29.73219 | 30.68223 | 6299 ft | 265 kts | 138° |
| 2026-05-07 21:04 | -29.74485 | 30.69764 | 5977 ft | 264 kts | 138° |
| 2026-05-07 21:04 | -29.75750 | 30.71308 | 5653 ft | 264 kts | 138° |
| 2026-05-07 21:05 | -29.77005 | 30.72840 | 5392 ft | 261 kts | 137° |
| 2026-05-07 21:05 | -29.78246 | 30.74357 | 5385 ft | 260 kts | 138° |
| 2026-05-07 21:05 | -29.79491 | 30.75873 | 5380 ft | 262 kts | 137° |
| 2026-05-07 21:05 | -29.80737 | 30.77393 | 5379 ft | 263 kts | 137° |
| 2026-05-07 21:06 | -29.81997 | 30.78934 | 5377 ft | 262 kts | 138° |
| 2026-05-07 21:06 | -29.83116 | 30.80581 | 5366 ft | 267 kts | 121° |
| 2026-05-07 21:06 | -29.83523 | 30.82656 | 5150 ft | 269 kts | 87° |
| 2026-05-07 21:06 | -29.83141 | 30.84782 | 4717 ft | 274 kts | 72° |
| 2026-05-07 21:07 | -29.82534 | 30.86832 | 4463 ft | 271 kts | 70° |
| 2026-05-07 21:07 | -29.81935 | 30.88883 | 4168 ft | 269 kts | 72° |
| 2026-05-07 21:07 | -29.81390 | 30.90942 | 4049 ft | 266 kts | 74° |
| 2026-05-07 21:07 | -29.80881 | 30.92983 | 4025 ft | 261 kts | 73° |
| 2026-05-07 21:08 | -29.80238 | 30.94888 | 4027 ft | 255 kts | 59° |
| 2026-05-07 21:08 | -29.79110 | 30.96436 | 4035 ft | 253 kts | 38° |
| 2026-05-07 21:08 | -29.77696 | 30.97686 | 3985 ft | 256 kts | 32° |
| 2026-05-07 21:08 | -29.76246 | 30.98860 | 3675 ft | 259 kts | 33° |
| 2026-05-07 21:09 | -29.74784 | 31.00102 | 3315 ft | 261 kts | 34° |
| 2026-05-07 21:09 | -29.73354 | 31.01362 | 2963 ft | 254 kts | 34° |
| 2026-05-07 21:09 | -29.72001 | 31.02551 | 2631 ft | 233 kts | 34° |
| 2026-05-07 21:09 | -29.70774 | 31.03620 | 2329 ft | 210 kts | 33° |
| 2026-05-07 21:10 | -29.69663 | 31.04581 | 2056 ft | 192 kts | 34° |
| 2026-05-07 21:10 | -29.68635 | 31.05475 | 1799 ft | 179 kts | 33° |
| 2026-05-07 21:10 | -29.67702 | 31.06285 | 1591 ft | 165 kts | 33° |
| 2026-05-07 21:10 | -29.66804 | 31.07066 | 1361 ft | 156 kts | 33° |
| 2026-05-07 21:11 | -29.65943 | 31.07812 | 1178 ft | 155 kts | 33° |
| 2026-05-07 21:11 | -29.65076 | 31.08557 | 950 ft | 153 kts | 33° |
| 2026-05-07 21:11 | -29.63355 | 31.10044 | 552 ft | 156 kts | 33° |
| 2026-05-07 21:12 | -29.62474 | 31.10789 | 346 ft | 157 kts | 35° |
| 2026-05-07 21:12 | -29.61685 | 31.11486 | 314 ft | 112 kts | 36° |
| 2026-05-07 21:12 | -29.61218 | 31.11892 | 313 ft | 62 kts | 37° |
| 2026-05-07 21:12 | -29.60932 | 31.12041 | 310 ft | 33 kts | 7° |
| 2026-05-07 21:13 | -29.60849 | 31.11969 | 310 ft | 20 kts | 222° |
| 2026-05-07 21:13 | -29.60959 | 31.11872 | 311 ft | 18 kts | 217° |
| 2026-05-07 21:13 | -29.61061 | 31.11785 | 311 ft | 17 kts | 216° |
| 2026-05-07 21:13 | -29.61158 | 31.11702 | 312 ft | 18 kts | 217° |
| 2026-05-07 21:14 | -29.61276 | 31.11600 | 312 ft | 22 kts | 217° |
| 2026-05-07 21:14 | -29.61401 | 31.11490 | 312 ft | 22 kts | 220° |
| 2026-05-07 21:14 | -29.61526 | 31.11377 | 312 ft | 22 kts | 217° |
| 2026-05-07 21:14 | -29.61657 | 31.11260 | 311 ft | 25 kts | 218° |
| 2026-05-07 21:15 | -29.61801 | 31.11136 | 308 ft | 26 kts | 217° |
| 2026-05-07 21:15 | -29.61947 | 31.11013 | 305 ft | 26 kts | 216° |
| 2026-05-07 21:15 | -29.62075 | 31.10899 | 301 ft | 14 kts | 228° |
| 2026-05-07 21:15 | -29.62063 | 31.10801 | 299 ft | 13 kts | 306° |
| 2026-05-07 21:16 | -29.62003 | 31.10713 | 297 ft | 14 kts | 312° |
| 2026-05-07 21:16 | -29.61959 | 31.10667 | 296 ft | 4 kts | 334° |
| 2026-05-07 21:16 | -29.61941 | 31.10678 | 297 ft | 2 kts | 39° |
| 2026-05-07 21:16 | -29.61929 | 31.10693 | 297 ft | 2 kts | 68° |
| 2026-05-07 21:17 | -29.61933 | 31.10720 | 298 ft | 4 kts | 114° |
| 2026-05-07 21:17 | -29.61947 | 31.10745 | 299 ft | 2 kts | 126° |
| 2026-05-07 21:17 | -29.61954 | 31.10749 | 299 ft | 0 kts | 191° |
| 2026-05-07 21:17 | -29.61954 | 31.10743 | 298 ft | 0 kts | 305° |
| 2026-05-07 21:18 | -29.61953 | 31.10743 | 298 ft | 0 kts | 310° |